createdAt,value
2016-09-28T00:00:19.133Z,99.42
2016-09-28T00:01:18.984Z,99.13
2016-09-28T00:02:19.028Z,98.85
2016-09-28T00:03:18.055Z,98.47
2016-09-28T00:04:18.738Z,98.18
2016-09-28T00:05:18.551Z,98.27
2016-09-28T00:06:18.903Z,98.66
2016-09-28T00:07:18.090Z,98.37
2016-09-28T00:08:18.730Z,98.18
2016-09-28T00:09:18.343Z,98.08
2016-09-28T00:10:18.547Z,97.51
2016-09-28T00:11:18.144Z,97.8
2016-09-28T00:12:18.292Z,97.37
2016-09-28T00:13:19.202Z,96.7
2016-09-28T00:14:19.363Z,96.89
2016-09-28T00:15:19.093Z,96.61
2016-09-28T00:16:18.749Z,96.42
2016-09-28T00:17:18.608Z,95.65
2016-09-28T00:18:18.771Z,96.03
2016-09-28T00:19:18.688Z,95.94
2016-09-28T00:20:18.706Z,95.84
2016-09-28T00:21:18.548Z,96.03
2016-09-28T00:22:18.570Z,95.84
2016-09-28T00:23:19.156Z,96.22
2016-09-28T00:24:18.812Z,96.51
2016-09-28T00:25:18.714Z,95.75
2016-09-28T00:26:19.446Z,96.42
2016-09-28T00:27:19.613Z,95.84
2016-09-28T00:28:18.657Z,95.94
2016-09-28T00:29:18.715Z,96.42
2016-09-28T00:30:18.735Z,95.84
2016-09-28T00:31:19.141Z,96.32
2016-09-28T00:32:18.833Z,96.61
2016-09-28T00:33:19.887Z,96.51
2016-09-28T00:34:18.920Z,96.61
2016-09-28T00:35:18.736Z,96.61
2016-09-28T00:36:19.160Z,96.51
2016-09-28T00:37:19.193Z,96.89
2016-09-28T00:38:19.377Z,96.98
2016-09-28T00:39:19.104Z,96.89
2016-09-28T00:40:19.542Z,96.84
2016-09-28T00:41:19.245Z,96.94
2016-09-28T00:42:18.878Z,96.8
2016-09-28T00:43:19.084Z,97.08
2016-09-28T00:44:19.025Z,96.61
2016-09-28T00:45:19.248Z,97.8
2016-09-28T00:46:19.177Z,97.8
2016-09-28T00:47:19.329Z,97.61
2016-09-28T00:48:20.305Z,97.8
2016-09-28T00:49:19.778Z,97.51
2016-09-28T00:50:20.026Z,96.7
2016-09-28T00:51:19.787Z,97.18
2016-09-28T00:52:19.699Z,96.94
2016-09-28T00:53:19.082Z,96.94
2016-09-28T00:54:19.687Z,97.13
2016-09-28T00:55:19.702Z,97.22
2016-09-28T00:56:19.461Z,97.8
2016-09-28T00:57:19.241Z,97.8
2016-09-28T00:58:19.236Z,97.71
2016-09-28T00:59:19.395Z,97.42
2016-09-28T01:00:19.429Z,97.51
2016-09-28T01:01:19.122Z,97.89
2016-09-28T01:02:19.446Z,98.08
2016-09-28T01:03:19.485Z,98.27
2016-09-28T01:04:19.412Z,98.22
2016-09-28T01:05:19.602Z,98.13
2016-09-28T01:06:19.642Z,98.61
2016-09-28T01:07:19.582Z,99.27
2016-09-28T01:08:19.628Z,99.75
2016-09-28T01:09:19.374Z,99.99
2016-09-28T01:10:20.831Z,99.85
2016-09-28T01:11:19.727Z,99.66
2016-09-28T01:12:20.532Z,99.95
2016-09-28T01:13:19.759Z,99.99
2016-09-28T01:14:19.707Z,99.99
2016-09-28T01:15:19.884Z,99.99
2016-09-28T01:16:20.200Z,99.99
2016-09-28T01:17:20.028Z,99.99
2016-09-28T01:18:19.860Z,99.99
2016-09-28T01:19:19.731Z,99.99
2016-09-28T01:20:19.894Z,99.99
2016-09-28T01:21:19.924Z,99.99
2016-09-28T01:22:19.772Z,99.99
2016-09-28T01:23:19.690Z,99.99
2016-09-28T01:24:20.004Z,99.99
2016-09-28T01:25:19.813Z,99.99
2016-09-28T01:26:19.746Z,99.99
2016-09-28T01:27:19.959Z,99.99
2016-09-28T01:28:19.923Z,99.99
2016-09-28T01:29:20.641Z,99.99
2016-09-28T01:30:19.754Z,99.99
2016-09-28T01:31:19.982Z,99.99
2016-09-28T01:32:20.106Z,99.99
2016-09-28T01:33:20.175Z,99.99
2016-09-28T01:34:20.285Z,99.99
2016-09-28T01:35:20.642Z,99.99
2016-09-28T01:36:19.932Z,99.99
2016-09-28T01:37:20.033Z,99.99
2016-09-28T01:38:20.831Z,99.99
2016-09-28T01:39:20.216Z,99.99
2016-09-28T01:40:20.303Z,99.99
2016-09-28T01:41:20.126Z,99.99
2016-09-28T01:42:20.075Z,99.99
2016-09-28T01:43:20.708Z,99.99
2016-09-28T01:44:20.807Z,99.99
2016-09-28T01:45:20.354Z,99.99
2016-09-28T01:46:20.801Z,99.99
2016-09-28T01:47:20.194Z,99.99
2016-09-28T01:48:20.705Z,99.99
2016-09-28T01:49:20.605Z,99.99
2016-09-28T01:50:20.387Z,99.99
2016-09-28T01:51:21.048Z,99.99
2016-09-28T01:52:20.715Z,99.99
2016-09-28T01:53:20.648Z,99.99
2016-09-28T01:54:20.828Z,99.99
2016-09-28T01:55:20.602Z,99.99
2016-09-28T01:56:20.798Z,99.99
2016-09-28T01:57:21.296Z,99.99
2016-09-28T01:58:21.409Z,99.99
2016-09-28T01:59:20.695Z,99.99
2016-09-28T02:00:20.880Z,99.99
2016-09-28T02:01:20.786Z,99.99
2016-09-28T02:02:20.719Z,99.99
2016-09-28T02:03:21.212Z,99.99
2016-09-28T02:04:20.747Z,99.99
2016-09-28T02:05:20.760Z,99.99
2016-09-28T02:06:21.030Z,99.99
2016-09-28T02:07:21.683Z,99.99
2016-09-28T02:08:20.768Z,99.99
2016-09-28T02:09:21.166Z,99.99
2016-09-28T02:10:20.922Z,99.99
2016-09-28T02:11:20.922Z,99.99
2016-09-28T02:12:21.389Z,99.99
2016-09-28T02:13:21.015Z,99.99
2016-09-28T02:14:20.657Z,99.99
2016-09-28T02:15:21.233Z,99.99
2016-09-28T02:16:21.241Z,99.99
2016-09-28T02:17:20.882Z,99.99
2016-09-28T02:18:20.969Z,99.99
2016-09-28T02:19:21.477Z,99.52
2016-09-28T02:20:21.365Z,99.52
2016-09-28T02:21:20.947Z,99.52
2016-09-28T02:22:21.363Z,99.42
2016-09-28T02:23:21.229Z,98.66
2016-09-28T02:24:22.168Z,98.47
2016-09-28T02:25:21.451Z,98.08
2016-09-28T02:26:20.953Z,98.85
2016-09-28T02:27:21.205Z,98.66
2016-09-28T02:28:21.148Z,98.66
2016-09-28T02:29:21.483Z,98.47
2016-09-28T02:30:21.299Z,98.61
2016-09-28T02:31:21.190Z,98.99
2016-09-28T02:32:21.255Z,99.37
2016-09-28T02:33:21.242Z,99.08
2016-09-28T02:34:21.518Z,98.7
2016-09-28T02:35:20.996Z,99.08
2016-09-28T02:36:21.688Z,98.9
2016-09-28T02:37:21.153Z,99.27
2016-09-28T02:38:21.896Z,99.37
2016-09-28T02:39:21.155Z,98.32
2016-09-28T02:40:21.872Z,98.18
2016-09-28T02:41:21.601Z,97.61
2016-09-28T02:42:21.717Z,97.71
2016-09-28T02:43:21.635Z,97.61
2016-09-28T02:44:21.856Z,97.71
2016-09-28T02:45:21.937Z,97.71
2016-09-28T02:46:22.051Z,97.61
2016-09-28T02:47:21.888Z,97.89
2016-09-28T02:48:21.366Z,98.13
2016-09-28T02:49:21.557Z,98.32
2016-09-28T02:50:21.722Z,98.32
2016-09-28T02:51:21.852Z,98.13
2016-09-28T02:52:21.383Z,98.61
2016-09-28T02:53:21.834Z,98.61
2016-09-28T02:54:21.537Z,98.03
2016-09-28T02:55:21.488Z,98.51
2016-09-28T02:56:21.421Z,98.42
2016-09-28T02:57:21.502Z,98.9
2016-09-28T02:58:21.981Z,99.18
2016-09-28T02:59:21.982Z,99.27
2016-09-28T03:00:22.214Z,99.66
2016-09-28T03:01:21.895Z,99.8
2016-09-28T03:02:22.137Z,99.89
2016-09-28T03:03:22.339Z,99.51
2016-09-28T03:04:22.491Z,99.99
2016-09-28T03:05:22.081Z,99.99
2016-09-28T03:06:21.905Z,99.99
2016-09-28T03:07:21.916Z,99.99
2016-09-28T03:08:22.936Z,99.99
2016-09-28T03:09:22.102Z,99.99
2016-09-28T03:10:21.778Z,99.99
2016-09-28T03:11:22.103Z,99.99
2016-09-28T03:12:21.921Z,99.99
2016-09-28T03:13:22.212Z,99.99
2016-09-28T03:14:22.253Z,99.99
2016-09-28T03:15:22.299Z,99.99
2016-09-28T03:16:22.821Z,99.99
2016-09-28T03:17:22.014Z,99.99
2016-09-28T03:18:22.067Z,99.99
2016-09-28T03:19:22.041Z,99.99
2016-09-28T03:20:22.334Z,99.99
2016-09-28T03:21:22.545Z,99.99
2016-09-28T03:22:21.874Z,99.99
2016-09-28T03:23:22.210Z,99.99
2016-09-28T03:24:22.267Z,99.99
2016-09-28T03:25:22.195Z,99.99
2016-09-28T03:26:22.119Z,99.99
2016-09-28T03:27:22.277Z,99.99
2016-09-28T03:28:22.801Z,99.99
2016-09-28T03:29:22.639Z,99.99
2016-09-28T03:30:22.301Z,99.99
2016-09-28T03:31:23.505Z,99.99
2016-09-28T03:32:22.239Z,99.99
2016-09-28T03:33:22.829Z,99.99
2016-09-28T03:34:22.149Z,99.99
2016-09-28T03:35:22.454Z,99.99
2016-09-28T03:36:22.691Z,99.99
2016-09-28T03:37:22.489Z,99.99
2016-09-28T03:38:22.477Z,99.99
2016-09-28T03:39:23.193Z,99.99
2016-09-28T03:40:22.423Z,99.99
2016-09-28T03:41:22.819Z,99.99
2016-09-28T03:42:22.602Z,99.99
2016-09-28T03:43:23.087Z,99.99
2016-09-28T03:44:22.837Z,99.99
2016-09-28T03:45:23.178Z,99.99
2016-09-28T03:46:22.535Z,99.99
2016-09-28T03:47:23.490Z,99.99
2016-09-28T03:48:22.502Z,99.99
2016-09-28T03:49:22.650Z,99.99
2016-09-28T03:50:22.646Z,99.99
2016-09-28T03:51:23.273Z,99.99
2016-09-28T03:52:22.763Z,99.99
2016-09-28T03:53:22.465Z,99.99
2016-09-28T03:54:22.867Z,99.99
2016-09-28T03:55:22.548Z,99.99
2016-09-28T03:56:22.609Z,99.99
2016-09-28T03:57:22.467Z,99.99
2016-09-28T03:58:24.339Z,99.99
2016-09-28T03:59:23.045Z,99.99
2016-09-28T04:00:23.211Z,99.99
2016-09-28T04:01:22.839Z,99.99
2016-09-28T04:02:23.294Z,99.99
2016-09-28T04:03:23.169Z,99.99
2016-09-28T04:04:22.922Z,99.99
2016-09-28T04:05:23.508Z,99.99
2016-09-28T04:06:23.236Z,99.99
2016-09-28T04:07:23.418Z,99.99
2016-09-28T04:08:23.413Z,99.99
2016-09-28T04:09:23.548Z,99.99
2016-09-28T04:10:22.862Z,99.99
2016-09-28T04:11:23.278Z,99.99
2016-09-28T04:12:23.683Z,99.99
2016-09-28T04:13:23.458Z,99.99
2016-09-28T04:14:23.149Z,99.99
2016-09-28T04:15:23.073Z,99.99
2016-09-28T04:16:23.712Z,99.99
2016-09-28T04:17:23.360Z,99.99
2016-09-28T04:18:23.573Z,99.99
2016-09-28T04:19:23.524Z,99.99
2016-09-28T04:20:23.517Z,99.99
2016-09-28T04:21:23.195Z,99.99
2016-09-28T04:22:23.359Z,99.99
2016-09-28T04:23:23.977Z,99.99
2016-09-28T04:24:23.789Z,99.99
2016-09-28T04:25:23.373Z,99.99
2016-09-28T04:26:23.922Z,99.99
2016-09-28T04:27:23.651Z,99.99
2016-09-28T04:28:24.147Z,99.99
2016-09-28T04:29:23.513Z,99.99
2016-09-28T04:30:23.449Z,99.99
2016-09-28T04:31:23.307Z,99.99
2016-09-28T04:32:23.713Z,99.99
2016-09-28T04:33:23.885Z,99.99
2016-09-28T04:34:24.479Z,99.99
2016-09-28T04:35:23.831Z,99.99
2016-09-28T04:36:23.891Z,99.99
2016-09-28T04:37:23.808Z,99.99
2016-09-28T04:38:23.637Z,99.99
2016-09-28T04:39:23.864Z,99.99
2016-09-28T04:40:23.556Z,99.99
2016-09-28T04:41:24.004Z,99.99
2016-09-28T04:42:23.936Z,99.99
2016-09-28T04:43:23.789Z,99.99
2016-09-28T04:44:24.264Z,99.99
2016-09-28T04:45:23.875Z,99.99
2016-09-28T04:46:23.896Z,99.99
2016-09-28T04:47:23.910Z,99.99
2016-09-28T04:48:24.609Z,99.99
2016-09-28T04:49:23.897Z,99.99
2016-09-28T04:50:24.068Z,99.99
2016-09-28T04:51:24.066Z,99.99
2016-09-28T04:52:24.097Z,99.99
2016-09-28T04:53:24.063Z,99.99
2016-09-28T04:54:23.917Z,99.99
2016-09-28T04:55:24.001Z,99.99
2016-09-28T04:56:23.998Z,99.99
2016-09-28T04:57:23.986Z,99.99
2016-09-28T04:58:24.035Z,99.99
2016-09-28T04:59:24.183Z,99.99
2016-09-28T05:00:23.909Z,99.99
2016-09-28T05:01:24.295Z,99.99
2016-09-28T05:02:24.247Z,99.99
2016-09-28T05:03:24.228Z,99.99
2016-09-28T05:04:24.302Z,99.99
2016-09-28T05:05:23.936Z,99.99
2016-09-28T05:06:24.512Z,99.99
2016-09-28T05:07:24.291Z,99.99
2016-09-28T05:08:24.073Z,99.99
2016-09-28T05:09:24.601Z,99.99
2016-09-28T05:10:24.868Z,99.99
2016-09-28T05:11:24.199Z,99.99
2016-09-28T05:12:24.088Z,99.99
2016-09-28T05:13:24.690Z,99.99
2016-09-28T05:14:24.543Z,99.99
2016-09-28T05:15:24.804Z,99.99
2016-09-28T05:16:23.871Z,99.99
2016-09-28T05:17:23.890Z,99.99
2016-09-28T05:18:23.986Z,99.99
2016-09-28T05:19:23.965Z,99.99
2016-09-28T05:20:24.946Z,99.99
2016-09-28T05:21:24.314Z,99.99
2016-09-28T05:22:24.660Z,99.99
2016-09-28T05:23:24.498Z,99.99
2016-09-28T05:24:24.733Z,99.99
2016-09-28T05:25:24.511Z,99.99
2016-09-28T05:26:25.017Z,99.99
2016-09-28T05:27:25.077Z,99.99
2016-09-28T05:28:24.870Z,99.99
2016-09-28T05:29:24.951Z,99.99
2016-09-28T05:30:24.464Z,99.99
2016-09-28T05:31:24.940Z,99.99
2016-09-28T05:32:25.148Z,99.99
2016-09-28T05:33:24.956Z,99.99
2016-09-28T05:34:24.947Z,99.99
2016-09-28T05:35:24.538Z,99.99
2016-09-28T05:36:25.086Z,99.99
2016-09-28T05:37:24.500Z,99.99
2016-09-28T05:38:25.000Z,99.99
2016-09-28T05:39:25.058Z,99.99
2016-09-28T05:40:25.112Z,99.99
2016-09-28T05:41:25.572Z,99.99
2016-09-28T05:42:24.901Z,99.99
2016-09-28T05:43:24.881Z,99.99
2016-09-28T05:44:24.982Z,99.99
2016-09-28T05:45:25.108Z,99.99
2016-09-28T05:46:24.569Z,99.99
2016-09-28T05:47:25.312Z,99.99
2016-09-28T05:48:24.956Z,99.99
2016-09-28T05:49:25.428Z,99.99
2016-09-28T05:50:25.197Z,99.99
2016-09-28T05:51:25.371Z,99.99
2016-09-28T05:52:24.939Z,99.99
2016-09-28T05:53:25.294Z,99.99
2016-09-28T05:54:24.893Z,99.99
2016-09-28T05:55:24.899Z,99.99
2016-09-28T05:56:25.134Z,99.99
2016-09-28T05:57:24.868Z,99.99
2016-09-28T05:58:25.053Z,99.99
2016-09-28T05:59:25.304Z,99.99
2016-09-28T06:00:25.330Z,99.99
2016-09-28T06:01:25.637Z,99.99
2016-09-28T06:02:25.576Z,99.99
2016-09-28T06:03:25.367Z,99.99
2016-09-28T06:04:25.389Z,99.99
2016-09-28T06:05:25.724Z,99.99
2016-09-28T06:06:25.151Z,99.99
2016-09-28T06:07:26.036Z,99.99
2016-09-28T06:08:25.980Z,99.99
2016-09-28T06:09:26.088Z,99.99
2016-09-28T06:10:25.017Z,99.99
2016-09-28T06:11:25.566Z,99.99
2016-09-28T06:12:25.363Z,99.99
2016-09-28T06:13:26.211Z,99.99
2016-09-28T06:14:25.201Z,99.99
2016-09-28T06:15:25.880Z,99.99
2016-09-28T06:16:25.603Z,99.99
2016-09-28T06:17:25.873Z,99.99
2016-09-28T06:18:25.482Z,99.99
2016-09-28T06:19:25.535Z,99.99
2016-09-28T06:20:25.486Z,99.99
2016-09-28T06:21:25.943Z,99.99
2016-09-28T06:22:26.376Z,99.99
2016-09-28T06:23:26.081Z,99.99
2016-09-28T06:24:26.462Z,99.99
2016-09-28T06:25:26.168Z,99.99
2016-09-28T06:26:25.960Z,99.99
2016-09-28T06:27:26.269Z,99.99
2016-09-28T06:28:25.745Z,99.99
2016-09-28T06:29:26.444Z,99.99
2016-09-28T06:30:25.936Z,99.99
2016-09-28T06:31:25.952Z,99.99
2016-09-28T06:32:26.288Z,99.99
2016-09-28T06:33:26.577Z,99.99
2016-09-28T06:34:25.758Z,99.99
2016-09-28T06:35:26.464Z,99.99
2016-09-28T06:36:25.923Z,99.99
2016-09-28T06:37:26.515Z,99.85
2016-09-28T06:38:25.924Z,98.61
2016-09-28T06:39:26.248Z,98.52
2016-09-28T06:40:25.925Z,99.37
2016-09-28T06:41:25.930Z,98.42
2016-09-28T06:42:25.897Z,99.28
2016-09-28T06:43:26.722Z,98.13
2016-09-28T06:44:26.302Z,99.04
2016-09-28T06:45:26.342Z,98.08
2016-09-28T06:46:26.172Z,94.65
2016-09-28T06:47:25.979Z,95.41
2016-09-28T06:48:26.264Z,94.84
2016-09-28T06:49:25.930Z,93.5
2016-09-28T06:50:26.315Z,91.21
2016-09-28T06:51:26.320Z,91.16
2016-09-28T06:52:25.986Z,89.63
2016-09-28T06:53:26.144Z,88.87
2016-09-28T06:54:25.998Z,89.63
2016-09-28T06:55:26.222Z,88.34
2016-09-28T06:56:26.065Z,88.05
2016-09-28T06:57:26.208Z,88.24
2016-09-28T06:58:26.346Z,87.48
2016-09-28T06:59:26.593Z,87.19
2016-09-28T07:00:26.420Z,86.52
2016-09-28T07:01:26.661Z,86.43
2016-09-28T07:02:26.729Z,87.38
2016-09-28T07:03:26.682Z,85.57
2016-09-28T07:04:26.540Z,86.14
2016-09-28T07:05:26.458Z,86.33
2016-09-28T07:06:26.369Z,85.75
2016-09-28T07:07:26.279Z,86.04
2016-09-28T07:08:26.758Z,85.47
2016-09-28T07:09:27.344Z,85.57
2016-09-28T07:10:26.620Z,85.38
2016-09-28T07:11:27.794Z,85.66
2016-09-28T07:12:27.451Z,84.84
2016-09-28T07:13:26.598Z,85.13
2016-09-28T07:14:26.336Z,84.52
2016-09-28T07:15:26.530Z,84.75
2016-09-28T07:16:27.035Z,85.32
2016-09-28T07:17:26.433Z,85.03
2016-09-28T07:18:26.494Z,85.03
2016-09-28T07:19:27.222Z,84.55
2016-09-28T07:20:27.312Z,85.71
2016-09-28T07:21:26.907Z,85.61
2016-09-28T07:22:27.479Z,83.98
2016-09-28T07:23:27.137Z,85.03
2016-09-28T07:24:26.999Z,83.89
2016-09-28T07:25:27.770Z,83.89
2016-09-28T07:26:27.317Z,83.4
2016-09-28T07:27:27.018Z,83.31
2016-09-28T07:28:27.879Z,84.84
2016-09-28T07:29:26.949Z,83.31
2016-09-28T07:30:27.136Z,83.31
2016-09-28T07:31:27.093Z,82.97
2016-09-28T07:32:27.059Z,83.73
2016-09-28T07:33:27.025Z,83.36
2016-09-28T07:34:27.116Z,82.11
2016-09-28T07:35:27.084Z,81.82
2016-09-28T07:36:27.416Z,82.2
2016-09-28T07:37:27.091Z,82.68
2016-09-28T07:38:27.874Z,82.01
2016-09-28T07:39:27.480Z,81.82
2016-09-28T07:40:27.380Z,81.54
2016-09-28T07:41:27.068Z,81.25
2016-09-28T07:42:27.148Z,81.82
2016-09-28T07:43:27.448Z,81.86
2016-09-28T07:44:27.333Z,81.48
2016-09-28T07:45:27.124Z,80.24
2016-09-28T07:46:27.640Z,78.7
2016-09-28T07:47:27.201Z,80.04
2016-09-28T07:48:27.738Z,80.9
2016-09-28T07:49:27.857Z,80.62
2016-09-28T07:50:27.437Z,80.62
2016-09-28T07:51:27.410Z,79.37
2016-09-28T07:52:27.682Z,80.04
2016-09-28T07:53:27.373Z,80.14
2016-09-28T07:54:27.919Z,79.47
2016-09-28T07:55:27.650Z,80.43
2016-09-28T07:56:27.947Z,79.57
2016-09-28T07:57:27.367Z,79.37
2016-09-28T07:58:28.091Z,78.55
2016-09-28T07:59:27.367Z,80.24
2016-09-28T08:00:27.613Z,81.1
2016-09-28T08:01:28.077Z,79.57
2016-09-28T08:02:28.071Z,80.62
2016-09-28T08:03:27.696Z,80.52
2016-09-28T08:04:28.726Z,80.62
2016-09-28T08:05:27.809Z,80.52
2016-09-28T08:06:28.298Z,78.22
2016-09-28T08:07:27.623Z,78.74
2016-09-28T08:08:27.797Z,78.17
2016-09-28T08:09:28.179Z,78.27
2016-09-28T08:10:28.920Z,78.36
2016-09-28T08:11:28.017Z,76.73
2016-09-28T08:12:28.154Z,75.68
2016-09-28T08:13:27.803Z,75.62
2016-09-28T08:14:28.499Z,76.29
2016-09-28T08:15:27.998Z,75.81
2016-09-28T08:16:28.462Z,75.14
2016-09-28T08:17:28.171Z,74.27
2016-09-28T08:18:28.676Z,73.32
2016-09-28T08:19:28.350Z,72.74
2016-09-28T08:20:28.333Z,71.98
2016-09-28T08:21:28.048Z,71.72
2016-09-28T08:22:28.112Z,71.63
2016-09-28T08:23:28.002Z,71.05
2016-09-28T08:24:27.786Z,70.86
2016-09-28T08:25:28.374Z,69.81
2016-09-28T08:26:28.419Z,70.42
2016-09-28T08:27:28.368Z,70.8
2016-09-28T08:28:28.328Z,69.65
2016-09-28T08:29:27.957Z,69.65
2016-09-28T08:30:28.082Z,70.03
2016-09-28T08:31:28.759Z,69.46
2016-09-28T08:32:29.102Z,69.74
2016-09-28T08:33:28.346Z,69.56
2016-09-28T08:34:28.310Z,69.46
2016-09-28T08:35:28.180Z,68.05
2016-09-28T08:36:28.128Z,66.74
2016-09-28T08:37:28.359Z,66.84
2016-09-28T08:38:28.739Z,66.2
2016-09-28T08:39:28.343Z,66.46
2016-09-28T08:40:28.384Z,66.58
2016-09-28T08:41:28.733Z,66.74
2016-09-28T08:42:28.392Z,66.64
2016-09-28T08:43:28.298Z,66.64
2016-09-28T08:44:28.983Z,67.51
2016-09-28T08:45:28.611Z,66.93
2016-09-28T08:46:28.395Z,67.32
2016-09-28T08:47:28.856Z,68.18
2016-09-28T08:48:28.824Z,67.9
2016-09-28T08:49:28.955Z,67.99
2016-09-28T08:50:29.120Z,67.99
2016-09-28T08:51:29.045Z,68.08
2016-09-28T08:52:29.277Z,67.61
2016-09-28T08:53:29.047Z,67.13
2016-09-28T08:54:28.971Z,67.74
2016-09-28T08:55:29.915Z,67.35
2016-09-28T08:56:28.641Z,66.74
2016-09-28T08:57:28.876Z,67.99
2016-09-28T08:58:29.274Z,68.57
2016-09-28T08:59:28.533Z,68.37
2016-09-28T09:00:29.273Z,68.15
2016-09-28T09:01:28.821Z,68.63
2016-09-28T09:02:28.725Z,69.11
2016-09-28T09:03:29.179Z,69.68
2016-09-28T09:04:28.864Z,69.3
2016-09-28T09:05:29.205Z,68.63
2016-09-28T09:06:29.297Z,69.11
2016-09-28T09:07:29.021Z,69.2
2016-09-28T09:08:29.292Z,69.68
2016-09-28T09:09:29.199Z,68.91
2016-09-28T09:10:29.077Z,69.11
2016-09-28T09:11:29.217Z,68.91
2016-09-28T09:12:29.422Z,69.68
2016-09-28T09:13:29.219Z,68.85
2016-09-28T09:14:29.277Z,69.2
2016-09-28T09:15:29.474Z,69.68
2016-09-28T09:16:29.044Z,69.81
2016-09-28T09:17:29.182Z,68.95
2016-09-28T09:18:29.667Z,69.14
2016-09-28T09:19:29.263Z,69.14
2016-09-28T09:20:29.597Z,69.14
2016-09-28T09:21:29.639Z,69.24
2016-09-28T09:22:29.355Z,68.95
2016-09-28T09:23:29.378Z,69.34
2016-09-28T09:24:29.652Z,69.53
2016-09-28T09:25:29.567Z,69.05
2016-09-28T09:26:29.892Z,69.72
2016-09-28T09:27:29.367Z,69.53
2016-09-28T09:28:29.527Z,70.01
2016-09-28T09:29:29.468Z,69.72
2016-09-28T09:30:30.437Z,69.81
2016-09-28T09:31:29.710Z,69.37
2016-09-28T09:32:29.821Z,69.85
2016-09-28T09:33:29.769Z,69.18
2016-09-28T09:34:29.456Z,69.37
2016-09-28T09:35:29.864Z,68.7
2016-09-28T09:36:29.859Z,68.79
2016-09-28T09:37:30.121Z,69.18
2016-09-28T09:38:30.567Z,69.46
2016-09-28T09:39:29.904Z,70.43
2016-09-28T09:40:29.681Z,69.12
2016-09-28T09:41:30.164Z,69.27
2016-09-28T09:42:30.413Z,68.54
2016-09-28T09:43:29.697Z,69.37
2016-09-28T09:44:29.781Z,69.02
2016-09-28T09:45:29.784Z,69.31
2016-09-28T09:46:29.888Z,69.02
2016-09-28T09:47:30.224Z,69.12
2016-09-28T09:48:29.845Z,69.12
2016-09-28T09:49:30.008Z,69.4
2016-09-28T09:50:30.383Z,68.44
2016-09-28T09:51:30.120Z,69.31
2016-09-28T09:52:30.377Z,69.21
2016-09-28T09:53:29.874Z,70.37
2016-09-28T09:54:30.799Z,70.37
2016-09-28T09:55:29.981Z,69.02
2016-09-28T09:56:30.486Z,69.21
2016-09-28T09:57:30.360Z,69.6
2016-09-28T09:58:30.730Z,69.31
2016-09-28T09:59:30.687Z,69.79
2016-09-28T10:00:29.884Z,69.98
2016-09-28T10:01:30.435Z,69.79
2016-09-28T10:02:30.351Z,69.79
2016-09-28T10:03:30.261Z,69.4
2016-09-28T10:04:30.238Z,69.69
2016-09-28T10:05:30.513Z,70.07
2016-09-28T10:06:30.530Z,69.53
2016-09-28T10:07:30.923Z,70.56
2016-09-28T10:08:30.702Z,70.11
2016-09-28T10:09:30.525Z,70.11
2016-09-28T10:10:30.315Z,70.88
2016-09-28T10:11:30.588Z,70.88
2016-09-28T10:12:30.581Z,70.11
2016-09-28T10:13:30.992Z,70.4
2016-09-28T10:14:31.422Z,69.4
2016-09-28T10:15:30.730Z,70.4
2016-09-28T10:16:30.792Z,70.94
2016-09-28T10:17:31.202Z,69.79
2016-09-28T10:18:31.138Z,70.27
2016-09-28T10:19:30.565Z,70.27
2016-09-28T10:20:31.287Z,70.56
2016-09-28T10:21:30.604Z,70.68
2016-09-28T10:22:30.704Z,69.79
2016-09-28T10:23:30.858Z,70.17
2016-09-28T10:24:31.035Z,70.84
2016-09-28T10:25:30.494Z,70.5
2016-09-28T10:26:30.884Z,70.27
2016-09-28T10:27:31.279Z,70.98
2016-09-28T10:28:30.635Z,70.88
2016-09-28T10:29:30.581Z,70.84
2016-09-28T10:30:31.424Z,70.94
2016-09-28T10:31:30.935Z,71.14
2016-09-28T10:32:30.902Z,70.56
2016-09-28T10:33:31.203Z,70.88
2016-09-28T10:34:30.828Z,70.94
2016-09-28T10:35:31.226Z,70.4
2016-09-28T10:36:31.567Z,70.75
2016-09-28T10:37:31.249Z,70.94
2016-09-28T10:38:30.974Z,70.75
2016-09-28T10:39:31.311Z,72
2016-09-28T10:40:31.919Z,70.56
2016-09-28T10:41:31.990Z,70.94
2016-09-28T10:42:31.319Z,72.19
2016-09-28T10:43:31.906Z,72.38
2016-09-28T10:44:31.559Z,71.81
2016-09-28T10:45:31.493Z,70.94
2016-09-28T10:46:31.906Z,70.78
2016-09-28T10:47:31.508Z,71.04
2016-09-28T10:48:31.678Z,70.56
2016-09-28T10:49:31.309Z,71.46
2016-09-28T10:50:31.120Z,70.78
2016-09-28T10:51:31.856Z,70.88
2016-09-28T10:52:31.731Z,71.84
2016-09-28T10:53:31.963Z,70.78
2016-09-28T10:54:31.296Z,70.5
2016-09-28T10:55:31.861Z,70.4
2016-09-28T10:56:31.394Z,70.98
2016-09-28T10:57:31.407Z,72.52
2016-09-28T10:58:32.387Z,71.65
2016-09-28T10:59:31.578Z,71.55
2016-09-28T11:00:31.576Z,71.36
2016-09-28T11:01:31.509Z,70.78
2016-09-28T11:02:32.211Z,71.84
2016-09-28T11:03:32.074Z,71.84
2016-09-28T11:04:31.700Z,71.55
2016-09-28T11:05:31.942Z,72.13
2016-09-28T11:06:32.352Z,72.13
2016-09-28T11:07:32.324Z,70.98
2016-09-28T11:08:32.010Z,71.84
2016-09-28T11:09:32.264Z,70.98
2016-09-28T11:10:32.649Z,70.59
2016-09-28T11:11:31.843Z,72.03
2016-09-28T11:12:32.248Z,72.13
2016-09-28T11:13:31.664Z,72.86
2016-09-28T11:14:31.852Z,72.42
2016-09-28T11:15:31.728Z,71.71
2016-09-28T11:16:31.812Z,72.67
2016-09-28T11:17:32.215Z,73.06
2016-09-28T11:18:32.076Z,72.67
2016-09-28T11:19:32.450Z,73.06
2016-09-28T11:20:32.152Z,73.44
2016-09-28T11:21:32.773Z,73.25
2016-09-28T11:22:32.507Z,73.25
2016-09-28T11:23:32.510Z,73.83
2016-09-28T11:24:32.427Z,73.15
2016-09-28T11:25:31.915Z,73.54
2016-09-28T11:26:32.306Z,73.35
2016-09-28T11:27:32.455Z,73.25
2016-09-28T11:28:32.253Z,73.92
2016-09-28T11:29:32.170Z,73.44
2016-09-28T11:30:32.910Z,73.54
2016-09-28T11:31:32.209Z,73.54
2016-09-28T11:32:32.233Z,74.02
2016-09-28T11:33:32.606Z,74.21
2016-09-28T11:34:32.948Z,73.92
2016-09-28T11:35:32.796Z,73.63
2016-09-28T11:36:32.308Z,74.5
2016-09-28T11:37:32.554Z,73.73
2016-09-28T11:38:32.768Z,74.02
2016-09-28T11:39:32.351Z,74.11
2016-09-28T11:40:32.687Z,74.5
2016-09-28T11:41:33.268Z,74.69
2016-09-28T11:42:33.650Z,74.5
2016-09-28T11:43:32.682Z,74.5
2016-09-28T11:44:33.475Z,74.69
2016-09-28T11:45:33.305Z,74.21
2016-09-28T11:46:32.663Z,75.21
2016-09-28T11:47:33.651Z,74.15
2016-09-28T11:48:33.455Z,74.34
2016-09-28T11:49:32.826Z,74.05
2016-09-28T11:50:33.098Z,73.09
2016-09-28T11:51:33.008Z,73.09
2016-09-28T11:52:33.178Z,73.09
2016-09-28T11:53:33.122Z,72.42
2016-09-28T11:54:32.952Z,72.26
2016-09-28T11:55:32.663Z,72.55
2016-09-28T11:56:32.883Z,70.82
2016-09-28T11:57:33.954Z,71.97
2016-09-28T11:58:33.369Z,71.97
2016-09-28T11:59:33.232Z,72.17
2016-09-28T12:00:33.009Z,74.09
2016-09-28T12:01:33.013Z,73.74
2016-09-28T12:02:33.110Z,72.97
2016-09-28T12:03:33.224Z,70.95
2016-09-28T12:04:33.115Z,70.18
2016-09-28T12:05:33.632Z,70.18
2016-09-28T12:06:33.099Z,69.79
2016-09-28T12:07:33.227Z,70.28
2016-09-28T12:08:33.472Z,70.37
2016-09-28T12:09:33.235Z,69.15
2016-09-28T12:10:33.307Z,69.99
2016-09-28T12:11:33.837Z,69.83
2016-09-28T12:12:34.089Z,70.98
2016-09-28T12:13:34.223Z,68.38
2016-09-28T12:14:33.096Z,68.23
2016-09-28T12:15:33.794Z,68.19
2016-09-28T12:16:33.441Z,70.41
2016-09-28T12:17:33.800Z,67.07
2016-09-28T12:18:33.641Z,65.88
2016-09-28T12:19:33.942Z,65.69
2016-09-28T12:20:33.278Z,65.78
2016-09-28T12:21:34.162Z,65.88
2016-09-28T12:22:34.283Z,66.39
2016-09-28T12:23:34.005Z,66.01
2016-09-28T12:24:33.500Z,65.95
2016-09-28T12:25:33.423Z,64.34
2016-09-28T12:26:34.382Z,63.47
2016-09-28T12:27:33.563Z,64.63
2016-09-28T12:28:33.777Z,65.11
2016-09-28T12:29:33.536Z,65.66
2016-09-28T12:30:33.933Z,65.72
2016-09-28T12:31:33.526Z,66.01
2016-09-28T12:32:33.938Z,67.65
2016-09-28T12:33:33.774Z,67.65
2016-09-28T12:34:34.190Z,68.29
2016-09-28T12:35:34.303Z,68.29
2016-09-28T12:36:34.060Z,68.16
2016-09-28T12:37:34.122Z,69.22
2016-09-28T12:38:34.295Z,69.41
2016-09-28T12:39:34.038Z,69.02
2016-09-28T12:40:34.389Z,69.02
2016-09-28T12:41:34.036Z,69.51
2016-09-28T12:42:34.293Z,69.76
2016-09-28T12:43:34.094Z,69.28
2016-09-28T12:44:34.915Z,69.22
2016-09-28T12:45:34.592Z,67.29
2016-09-28T12:46:34.147Z,67.29
2016-09-28T12:47:33.944Z,67.61
2016-09-28T12:48:34.439Z,66.91
2016-09-28T12:49:34.097Z,66.81
2016-09-28T12:50:34.240Z,67
2016-09-28T12:51:34.939Z,66.07
2016-09-28T12:52:34.538Z,66.24
2016-09-28T12:53:34.335Z,66.33
2016-09-28T12:54:34.637Z,66.42